sensor_id;sensor_type;location;lat;lon;timestamp;P1;durP1;ratioP1;P2;durP2;ratioP2
37943;SDS011;23767;42.024;23.086;2022-12-11T00:01:11;12.15;;;3.35;;
37943;SDS011;23767;42.024;23.086;2022-12-11T00:03:38;11.80;;;3.40;;
37943;SDS011;23767;42.024;23.086;2022-12-11T00:06:08;11.50;;;3.45;;
37943;SDS011;23767;42.024;23.086;2022-12-11T00:08:34;9.63;;;3.30;;
37943;SDS011;23767;42.024;23.086;2022-12-11T00:11:01;12.93;;;3.63;;
37943;SDS011;23767;42.024;23.086;2022-12-11T00:13:27;9.85;;;3.17;;
37943;SDS011;23767;42.024;23.086;2022-12-11T00:15:53;10.63;;;3.00;;
37943;SDS011;23767;42.024;23.086;2022-12-11T00:18:19;11.60;;;3.20;;
37943;SDS011;23767;42.024;23.086;2022-12-11T00:20:45;11.90;;;4.38;;
37943;SDS011;23767;42.024;23.086;2022-12-11T00:23:11;12.98;;;3.22;;
37943;SDS011;23767;42.024;23.086;2022-12-11T00:25:41;10.52;;;3.28;;
37943;SDS011;23767;42.024;23.086;2022-12-11T00:28:08;14.77;;;3.63;;
37943;SDS011;23767;42.024;23.086;2022-12-11T00:30:37;19.65;;;4.00;;
37943;SDS011;23767;42.024;23.086;2022-12-11T00:33:04;11.52;;;3.30;;
37943;SDS011;23767;42.024;23.086;2022-12-11T00:35:30;15.25;;;4.05;;
37943;SDS011;23767;42.024;23.086;2022-12-11T00:37:56;16.67;;;4.00;;
37943;SDS011;23767;42.024;23.086;2022-12-11T00:40:22;11.93;;;3.17;;
37943;SDS011;23767;42.024;23.086;2022-12-11T00:42:48;13.75;;;3.65;;
37943;SDS011;23767;42.024;23.086;2022-12-11T00:45:14;12.45;;;3.13;;
37943;SDS011;23767;42.024;23.086;2022-12-11T00:47:40;14.98;;;3.38;;
37943;SDS011;23767;42.024;23.086;2022-12-11T00:50:06;12.82;;;3.22;;
37943;SDS011;23767;42.024;23.086;2022-12-11T00:52:33;9.73;;;2.70;;
37943;SDS011;23767;42.024;23.086;2022-12-11T00:54:59;16.20;;;3.72;;
37943;SDS011;23767;42.024;23.086;2022-12-11T00:57:25;16.52;;;3.25;;
37943;SDS011;23767;42.024;23.086;2022-12-11T00:59:51;11.82;;;2.72;;
37943;SDS011;23767;42.024;23.086;2022-12-11T01:02:17;12.27;;;2.75;;
37943;SDS011;23767;42.024;23.086;2022-12-11T01:04:43;8.68;;;2.08;;
37943;SDS011;23767;42.024;23.086;2022-12-11T01:07:09;8.70;;;2.55;;
37943;SDS011;23767;42.024;23.086;2022-12-11T01:09:35;6.97;;;1.98;;
37943;SDS011;23767;42.024;23.086;2022-12-11T01:12:19;6.75;;;1.63;;
37943;SDS011;23767;42.024;23.086;2022-12-11T01:14:45;7.20;;;1.70;;
37943;SDS011;23767;42.024;23.086;2022-12-11T01:17:11;5.55;;;1.40;;
37943;SDS011;23767;42.024;23.086;2022-12-11T01:19:37;7.38;;;1.80;;
37943;SDS011;23767;42.024;23.086;2022-12-11T01:22:03;8.70;;;1.70;;
37943;SDS011;23767;42.024;23.086;2022-12-11T01:24:30;10.00;;;1.98;;
37943;SDS011;23767;42.024;23.086;2022-12-11T01:26:56;6.70;;;1.63;;
37943;SDS011;23767;42.024;23.086;2022-12-11T01:29:22;8.18;;;2.03;;
37943;SDS011;23767;42.024;23.086;2022-12-11T01:31:48;7.90;;;1.95;;
37943;SDS011;23767;42.024;23.086;2022-12-11T01:34:14;9.20;;;2.35;;
37943;SDS011;23767;42.024;23.086;2022-12-11T01:36:40;8.02;;;2.22;;
37943;SDS011;23767;42.024;23.086;2022-12-11T01:39:06;7.43;;;1.98;;
37943;SDS011;23767;42.024;23.086;2022-12-11T01:41:32;7.47;;;2.15;;
37943;SDS011;23767;42.024;23.086;2022-12-11T01:44:00;8.63;;;1.80;;
37943;SDS011;23767;42.024;23.086;2022-12-11T01:46:26;8.77;;;2.00;;
37943;SDS011;23767;42.024;23.086;2022-12-11T01:48:53;7.25;;;1.92;;
37943;SDS011;23767;42.024;23.086;2022-12-11T01:51:19;8.88;;;2.30;;
37943;SDS011;23767;42.024;23.086;2022-12-11T01:53:47;7.25;;;1.80;;
37943;SDS011;23767;42.024;23.086;2022-12-11T01:56:15;5.78;;;1.77;;
37943;SDS011;23767;42.024;23.086;2022-12-11T01:58:43;10.35;;;2.17;;
37943;SDS011;23767;42.024;23.086;2022-12-11T02:01:12;6.07;;;1.83;;
37943;SDS011;23767;42.024;23.086;2022-12-11T02:03:39;8.57;;;2.30;;
37943;SDS011;23767;42.024;23.086;2022-12-11T02:06:05;5.97;;;1.70;;
37943;SDS011;23767;42.024;23.086;2022-12-11T02:08:31;7.95;;;1.95;;
37943;SDS011;23767;42.024;23.086;2022-12-11T02:13:32;4.82;;;1.60;;
37943;SDS011;23767;42.024;23.086;2022-12-11T02:16:23;7.30;;;2.00;;
37943;SDS011;23767;42.024;23.086;2022-12-11T02:21:23;7.15;;;1.48;;
37943;SDS011;23767;42.024;23.086;2022-12-11T02:34:28;10.73;;;1.85;;
37943;SDS011;23767;42.024;23.086;2022-12-11T02:36:56;8.38;;;2.53;;
37943;SDS011;23767;42.024;23.086;2022-12-11T02:39:23;6.68;;;2.17;;
37943;SDS011;23767;42.024;23.086;2022-12-11T02:41:51;6.50;;;2.03;;
37943;SDS011;23767;42.024;23.086;2022-12-11T02:44:22;14.80;;;2.78;;
37943;SDS011;23767;42.024;23.086;2022-12-11T02:46:49;10.88;;;2.30;;
37943;SDS011;23767;42.024;23.086;2022-12-11T02:49:16;9.70;;;2.58;;
37943;SDS011;23767;42.024;23.086;2022-12-11T02:51:42;13.98;;;2.90;;
37943;SDS011;23767;42.024;23.086;2022-12-11T02:54:15;8.60;;;2.90;;
37943;SDS011;23767;42.024;23.086;2022-12-11T02:56:45;12.90;;;2.60;;
37943;SDS011;23767;42.024;23.086;2022-12-11T02:59:13;12.38;;;2.80;;
37943;SDS011;23767;42.024;23.086;2022-12-11T03:01:40;14.60;;;2.88;;
37943;SDS011;23767;42.024;23.086;2022-12-11T03:04:06;13.73;;;3.17;;
37943;SDS011;23767;42.024;23.086;2022-12-11T03:06:41;10.30;;;2.85;;
37943;SDS011;23767;42.024;23.086;2022-12-11T03:09:08;13.55;;;3.10;;
37943;SDS011;23767;42.024;23.086;2022-12-11T03:11:34;18.08;;;3.33;;
37943;SDS011;23767;42.024;23.086;2022-12-11T03:14:01;8.70;;;2.60;;
37943;SDS011;23767;42.024;23.086;2022-12-11T03:19:33;11.15;;;3.00;;
37943;SDS011;23767;42.024;23.086;2022-12-11T03:24:33;11.30;;;3.28;;
37943;SDS011;23767;42.024;23.086;2022-12-11T03:27:05;11.30;;;2.78;;
37943;SDS011;23767;42.024;23.086;2022-12-11T03:29:35;11.98;;;3.17;;
37943;SDS011;23767;42.024;23.086;2022-12-11T03:32:04;14.15;;;3.22;;
37943;SDS011;23767;42.024;23.086;2022-12-11T03:37:17;9.57;;;2.45;;
37943;SDS011;23767;42.024;23.086;2022-12-11T03:39:48;11.57;;;2.80;;
37943;SDS011;23767;42.024;23.086;2022-12-11T03:42:15;13.18;;;3.15;;
37943;SDS011;23767;42.024;23.086;2022-12-11T03:44:45;15.80;;;3.08;;
37943;SDS011;23767;42.024;23.086;2022-12-11T03:47:13;11.10;;;2.85;;
37943;SDS011;23767;42.024;23.086;2022-12-11T03:49:40;14.05;;;3.25;;
37943;SDS011;23767;42.024;23.086;2022-12-11T03:52:08;16.95;;;3.28;;
37943;SDS011;23767;42.024;23.086;2022-12-11T03:54:34;12.98;;;3.10;;
37943;SDS011;23767;42.024;23.086;2022-12-11T03:57:01;8.75;;;2.70;;
37943;SDS011;23767;42.024;23.086;2022-12-11T03:59:28;12.25;;;3.10;;
37943;SDS011;23767;42.024;23.086;2022-12-11T04:01:54;8.25;;;2.83;;
37943;SDS011;23767;42.024;23.086;2022-12-11T04:04:21;10.00;;;2.97;;
37943;SDS011;23767;42.024;23.086;2022-12-11T04:06:47;14.40;;;3.22;;
37943;SDS011;23767;42.024;23.086;2022-12-11T04:09:13;13.25;;;2.97;;
37943;SDS011;23767;42.024;23.086;2022-12-11T04:11:39;13.77;;;3.47;;
37943;SDS011;23767;42.024;23.086;2022-12-11T04:14:10;15.50;;;3.88;;
37943;SDS011;23767;42.024;23.086;2022-12-11T04:16:56;14.10;;;3.28;;
37943;SDS011;23767;42.024;23.086;2022-12-11T04:19:23;10.50;;;3.03;;
37943;SDS011;23767;42.024;23.086;2022-12-11T04:22:09;14.93;;;3.60;;
37943;SDS011;23767;42.024;23.086;2022-12-11T04:24:54;13.63;;;3.08;;
37943;SDS011;23767;42.024;23.086;2022-12-11T04:27:20;13.48;;;3.08;;
37943;SDS011;23767;42.024;23.086;2022-12-11T04:30:06;15.07;;;2.90;;
37943;SDS011;23767;42.024;23.086;2022-12-11T04:32:32;11.43;;;2.75;;
37943;SDS011;23767;42.024;23.086;2022-12-11T04:34:58;14.20;;;3.63;;
37943;SDS011;23767;42.024;23.086;2022-12-11T04:37:26;15.63;;;3.70;;
37943;SDS011;23767;42.024;23.086;2022-12-11T04:39:52;16.00;;;3.05;;
37943;SDS011;23767;42.024;23.086;2022-12-11T04:42:18;14.30;;;3.47;;
37943;SDS011;23767;42.024;23.086;2022-12-11T04:44:44;12.73;;;3.35;;
37943;SDS011;23767;42.024;23.086;2022-12-11T04:47:10;16.33;;;3.78;;
37943;SDS011;23767;42.024;23.086;2022-12-11T04:49:36;15.27;;;4.13;;
37943;SDS011;23767;42.024;23.086;2022-12-11T04:52:02;13.85;;;3.38;;
37943;SDS011;23767;42.024;23.086;2022-12-11T04:54:29;9.85;;;2.97;;
37943;SDS011;23767;42.024;23.086;2022-12-11T04:56:55;11.48;;;3.58;;
37943;SDS011;23767;42.024;23.086;2022-12-11T04:59:21;16.50;;;3.40;;
37943;SDS011;23767;42.024;23.086;2022-12-11T05:01:47;14.00;;;3.90;;
37943;SDS011;23767;42.024;23.086;2022-12-11T05:04:13;17.70;;;3.90;;
37943;SDS011;23767;42.024;23.086;2022-12-11T05:06:39;15.18;;;3.63;;
37943;SDS011;23767;42.024;23.086;2022-12-11T05:09:09;17.73;;;3.85;;
37943;SDS011;23767;42.024;23.086;2022-12-11T05:11:35;16.80;;;3.67;;
37943;SDS011;23767;42.024;23.086;2022-12-11T05:14:01;14.40;;;3.55;;
37943;SDS011;23767;42.024;23.086;2022-12-11T05:16:27;9.35;;;3.00;;
37943;SDS011;23767;42.024;23.086;2022-12-11T05:18:53;13.57;;;3.67;;
37943;SDS011;23767;42.024;23.086;2022-12-11T05:21:19;15.80;;;3.33;;
37943;SDS011;23767;42.024;23.086;2022-12-11T05:23:45;11.77;;;3.20;;
37943;SDS011;23767;42.024;23.086;2022-12-11T05:26:15;14.50;;;3.55;;
37943;SDS011;23767;42.024;23.086;2022-12-11T05:28:41;16.17;;;3.58;;
37943;SDS011;23767;42.024;23.086;2022-12-11T05:31:11;13.77;;;3.28;;
37943;SDS011;23767;42.024;23.086;2022-12-11T05:33:38;13.15;;;3.75;;
37943;SDS011;23767;42.024;23.086;2022-12-11T05:36:04;11.50;;;3.55;;
37943;SDS011;23767;42.024;23.086;2022-12-11T05:38:31;11.73;;;3.22;;
37943;SDS011;23767;42.024;23.086;2022-12-11T05:40:57;14.05;;;3.65;;
37943;SDS011;23767;42.024;23.086;2022-12-11T05:43:24;12.75;;;3.55;;
37943;SDS011;23767;42.024;23.086;2022-12-11T05:45:51;18.25;;;4.85;;
37943;SDS011;23767;42.024;23.086;2022-12-11T05:48:17;11.00;;;4.03;;
37943;SDS011;23767;42.024;23.086;2022-12-11T05:50:43;17.60;;;6.07;;
37943;SDS011;23767;42.024;23.086;2022-12-11T05:53:09;16.05;;;5.35;;
37943;SDS011;23767;42.024;23.086;2022-12-11T05:55:35;13.45;;;4.20;;
37943;SDS011;23767;42.024;23.086;2022-12-11T05:58:02;11.20;;;3.55;;
37943;SDS011;23767;42.024;23.086;2022-12-11T06:00:28;9.00;;;2.90;;
37943;SDS011;23767;42.024;23.086;2022-12-11T06:02:54;13.27;;;3.58;;
37943;SDS011;23767;42.024;23.086;2022-12-11T06:05:20;12.50;;;3.33;;
37943;SDS011;23767;42.024;23.086;2022-12-11T06:07:46;13.68;;;3.40;;
37943;SDS011;23767;42.024;23.086;2022-12-11T06:10:12;15.57;;;4.35;;
37943;SDS011;23767;42.024;23.086;2022-12-11T06:12:38;12.25;;;3.38;;
37943;SDS011;23767;42.024;23.086;2022-12-11T06:15:04;10.95;;;3.13;;
37943;SDS011;23767;42.024;23.086;2022-12-11T06:17:32;8.90;;;3.25;;
37943;SDS011;23767;42.024;23.086;2022-12-11T06:19:58;13.13;;;3.97;;
37943;SDS011;23767;42.024;23.086;2022-12-11T06:22:24;9.30;;;3.00;;
37943;SDS011;23767;42.024;23.086;2022-12-11T06:24:50;10.40;;;4.10;;
37943;SDS011;23767;42.024;23.086;2022-12-11T06:27:16;13.77;;;4.60;;
37943;SDS011;23767;42.024;23.086;2022-12-11T06:29:43;16.00;;;4.18;;
37943;SDS011;23767;42.024;23.086;2022-12-11T06:32:09;15.10;;;4.07;;
37943;SDS011;23767;42.024;23.086;2022-12-11T06:34:35;11.27;;;3.20;;
37943;SDS011;23767;42.024;23.086;2022-12-11T06:37:01;10.70;;;3.20;;
37943;SDS011;23767;42.024;23.086;2022-12-11T06:39:27;11.23;;;3.55;;
37943;SDS011;23767;42.024;23.086;2022-12-11T06:41:53;13.02;;;3.38;;
37943;SDS011;23767;42.024;23.086;2022-12-11T06:44:19;15.20;;;4.20;;
37943;SDS011;23767;42.024;23.086;2022-12-11T06:46:45;12.38;;;3.90;;
37943;SDS011;23767;42.024;23.086;2022-12-11T06:49:11;10.65;;;3.35;;
37943;SDS011;23767;42.024;23.086;2022-12-11T06:51:37;11.00;;;3.50;;
37943;SDS011;23767;42.024;23.086;2022-12-11T06:54:04;8.02;;;3.33;;
37943;SDS011;23767;42.024;23.086;2022-12-11T06:56:30;13.18;;;3.92;;
37943;SDS011;23767;42.024;23.086;2022-12-11T06:58:56;10.93;;;3.30;;
37943;SDS011;23767;42.024;23.086;2022-12-11T07:01:23;12.50;;;2.85;;
37943;SDS011;23767;42.024;23.086;2022-12-11T07:03:51;11.60;;;3.08;;
37943;SDS011;23767;42.024;23.086;2022-12-11T07:06:17;11.13;;;3.20;;
37943;SDS011;23767;42.024;23.086;2022-12-11T07:08:44;12.75;;;3.47;;
37943;SDS011;23767;42.024;23.086;2022-12-11T07:11:11;11.43;;;2.88;;
37943;SDS011;23767;42.024;23.086;2022-12-11T07:13:37;8.23;;;2.33;;
37943;SDS011;23767;42.024;23.086;2022-12-11T07:16:03;9.52;;;2.90;;
37943;SDS011;23767;42.024;23.086;2022-12-11T07:18:34;10.88;;;2.90;;
37943;SDS011;23767;42.024;23.086;2022-12-11T07:21:01;10.35;;;2.70;;
37943;SDS011;23767;42.024;23.086;2022-12-11T07:23:27;11.25;;;3.72;;
37943;SDS011;23767;42.024;23.086;2022-12-11T07:25:54;9.52;;;2.78;;
37943;SDS011;23767;42.024;23.086;2022-12-11T07:28:20;10.57;;;2.97;;
37943;SDS011;23767;42.024;23.086;2022-12-11T07:30:46;11.48;;;3.40;;
37943;SDS011;23767;42.024;23.086;2022-12-11T07:33:12;14.00;;;3.40;;
37943;SDS011;23767;42.024;23.086;2022-12-11T07:35:38;13.27;;;4.05;;
37943;SDS011;23767;42.024;23.086;2022-12-11T07:38:04;6.90;;;2.88;;
37943;SDS011;23767;42.024;23.086;2022-12-11T07:40:32;8.13;;;3.13;;
37943;SDS011;23767;42.024;23.086;2022-12-11T07:42:58;8.05;;;3.08;;
37943;SDS011;23767;42.024;23.086;2022-12-11T07:45:24;8.20;;;3.35;;
37943;SDS011;23767;42.024;23.086;2022-12-11T07:47:53;10.45;;;3.38;;
37943;SDS011;23767;42.024;23.086;2022-12-11T07:50:19;8.32;;;2.88;;
37943;SDS011;23767;42.024;23.086;2022-12-11T07:52:45;8.65;;;2.90;;
37943;SDS011;23767;42.024;23.086;2022-12-11T07:55:11;8.80;;;2.85;;
37943;SDS011;23767;42.024;23.086;2022-12-11T07:57:37;6.80;;;2.60;;
37943;SDS011;23767;42.024;23.086;2022-12-11T08:00:04;8.32;;;2.88;;
37943;SDS011;23767;42.024;23.086;2022-12-11T08:02:30;11.75;;;2.63;;
37943;SDS011;23767;42.024;23.086;2022-12-11T08:04:56;9.07;;;2.17;;
37943;SDS011;23767;42.024;23.086;2022-12-11T08:07:22;6.72;;;2.50;;
37943;SDS011;23767;42.024;23.086;2022-12-11T08:09:48;8.48;;;2.60;;
37943;SDS011;23767;42.024;23.086;2022-12-11T08:12:14;8.43;;;2.63;;
37943;SDS011;23767;42.024;23.086;2022-12-11T08:14:40;8.98;;;2.05;;
37943;SDS011;23767;42.024;23.086;2022-12-11T08:17:06;8.75;;;2.03;;
37943;SDS011;23767;42.024;23.086;2022-12-11T08:19:32;6.22;;;1.90;;
37943;SDS011;23767;42.024;23.086;2022-12-11T08:21:58;7.40;;;2.10;;
37943;SDS011;23767;42.024;23.086;2022-12-11T08:24:24;7.55;;;2.38;;
37943;SDS011;23767;42.024;23.086;2022-12-11T08:26:51;7.75;;;2.15;;
37943;SDS011;23767;42.024;23.086;2022-12-11T08:29:17;6.78;;;1.88;;
37943;SDS011;23767;42.024;23.086;2022-12-11T08:31:43;6.15;;;1.77;;
37943;SDS011;23767;42.024;23.086;2022-12-11T08:34:10;6.40;;;1.70;;
37943;SDS011;23767;42.024;23.086;2022-12-11T08:36:37;4.63;;;1.70;;
37943;SDS011;23767;42.024;23.086;2022-12-11T08:39:03;4.88;;;1.45;;
37943;SDS011;23767;42.024;23.086;2022-12-11T08:41:30;5.47;;;1.60;;
37943;SDS011;23767;42.024;23.086;2022-12-11T08:43:56;6.03;;;1.83;;
37943;SDS011;23767;42.024;23.086;2022-12-11T08:46:23;5.43;;;1.90;;
37943;SDS011;23767;42.024;23.086;2022-12-11T08:48:49;4.55;;;1.70;;
37943;SDS011;23767;42.024;23.086;2022-12-11T08:51:17;6.63;;;1.98;;
37943;SDS011;23767;42.024;23.086;2022-12-11T08:53:44;8.50;;;2.30;;
37943;SDS011;23767;42.024;23.086;2022-12-11T08:56:15;11.05;;;1.92;;
37943;SDS011;23767;42.024;23.086;2022-12-11T08:58:41;7.40;;;1.90;;
37943;SDS011;23767;42.024;23.086;2022-12-11T09:01:08;8.32;;;1.98;;
37943;SDS011;23767;42.024;23.086;2022-12-11T09:03:35;6.70;;;2.00;;
37943;SDS011;23767;42.024;23.086;2022-12-11T09:06:05;9.07;;;2.20;;
37943;SDS011;23767;42.024;23.086;2022-12-11T09:08:32;6.65;;;1.58;;
37943;SDS011;23767;42.024;23.086;2022-12-11T09:11:02;9.65;;;1.90;;
37943;SDS011;23767;42.024;23.086;2022-12-11T09:13:28;7.05;;;1.80;;
37943;SDS011;23767;42.024;23.086;2022-12-11T09:15:54;5.80;;;2.03;;
37943;SDS011;23767;42.024;23.086;2022-12-11T09:18:20;4.63;;;1.50;;
37943;SDS011;23767;42.024;23.086;2022-12-11T09:20:46;5.13;;;1.63;;
37943;SDS011;23767;42.024;23.086;2022-12-11T09:23:12;7.55;;;1.67;;
37943;SDS011;23767;42.024;23.086;2022-12-11T09:25:39;6.07;;;1.88;;
37943;SDS011;23767;42.024;23.086;2022-12-11T09:28:05;6.07;;;1.85;;
37943;SDS011;23767;42.024;23.086;2022-12-11T09:30:31;8.15;;;2.30;;
37943;SDS011;23767;42.024;23.086;2022-12-11T09:32:58;5.85;;;1.73;;
37943;SDS011;23767;42.024;23.086;2022-12-11T09:35:24;7.68;;;1.70;;
37943;SDS011;23767;42.024;23.086;2022-12-11T09:37:50;6.57;;;1.60;;
37943;SDS011;23767;42.024;23.086;2022-12-11T09:40:16;7.07;;;1.92;;
37943;SDS011;23767;42.024;23.086;2022-12-11T09:42:53;8.15;;;2.35;;
37943;SDS011;23767;42.024;23.086;2022-12-11T09:45:23;6.40;;;1.90;;
37943;SDS011;23767;42.024;23.086;2022-12-11T09:47:50;6.93;;;1.80;;
37943;SDS011;23767;42.024;23.086;2022-12-11T09:50:18;7.18;;;1.80;;
37943;SDS011;23767;42.024;23.086;2022-12-11T09:56:17;6.15;;;1.70;;
37943;SDS011;23767;42.024;23.086;2022-12-11T10:01:01;5.82;;;1.50;;
37943;SDS011;23767;42.024;23.086;2022-12-11T10:06:11;6.22;;;1.60;;
37943;SDS011;23767;42.024;23.086;2022-12-11T10:08:56;5.70;;;1.98;;
37943;SDS011;23767;42.024;23.086;2022-12-11T10:13:55;8.15;;;2.22;;
37943;SDS011;23767;42.024;23.086;2022-12-11T10:18:58;6.18;;;2.22;;
37943;SDS011;23767;42.024;23.086;2022-12-11T10:21:24;9.52;;;2.50;;
37943;SDS011;23767;42.024;23.086;2022-12-11T10:23:57;7.45;;;2.47;;
37943;SDS011;23767;42.024;23.086;2022-12-11T10:26:26;8.10;;;2.10;;
37943;SDS011;23767;42.024;23.086;2022-12-11T10:28:52;6.35;;;2.30;;
37943;SDS011;23767;42.024;23.086;2022-12-11T10:34:04;7.03;;;1.73;;
37943;SDS011;23767;42.024;23.086;2022-12-11T10:36:34;9.45;;;2.42;;
37943;SDS011;23767;42.024;23.086;2022-12-11T10:39:01;8.05;;;2.67;;
37943;SDS011;23767;42.024;23.086;2022-12-11T10:41:37;9.68;;;2.70;;
37943;SDS011;23767;42.024;23.086;2022-12-11T10:44:13;5.63;;;2.05;;
37943;SDS011;23767;42.024;23.086;2022-12-11T10:46:40;9.13;;;2.20;;
37943;SDS011;23767;42.024;23.086;2022-12-11T10:49:17;6.43;;;2.47;;
37943;SDS011;23767;42.024;23.086;2022-12-11T10:51:45;7.88;;;2.30;;
37943;SDS011;23767;42.024;23.086;2022-12-11T10:54:45;6.97;;;2.10;;
37943;SDS011;23767;42.024;23.086;2022-12-11T10:57:04;9.23;;;2.20;;
37943;SDS011;23767;42.024;23.086;2022-12-11T10:59:37;6.57;;;2.92;;
37943;SDS011;23767;42.024;23.086;2022-12-11T11:02:04;5.63;;;2.50;;
37943;SDS011;23767;42.024;23.086;2022-12-11T11:04:31;7.07;;;2.47;;
37943;SDS011;23767;42.024;23.086;2022-12-11T11:07:02;12.70;;;3.83;;
37943;SDS011;23767;42.024;23.086;2022-12-11T11:09:30;14.40;;;3.58;;
37943;SDS011;23767;42.024;23.086;2022-12-11T11:11:56;10.57;;;3.33;;
37943;SDS011;23767;42.024;23.086;2022-12-11T11:14:22;9.82;;;3.05;;
37943;SDS011;23767;42.024;23.086;2022-12-11T11:16:49;8.23;;;2.80;;
37943;SDS011;23767;42.024;23.086;2022-12-11T11:19:26;11.38;;;3.00;;
37943;SDS011;23767;42.024;23.086;2022-12-11T11:21:55;8.70;;;2.55;;
37943;SDS011;23767;42.024;23.086;2022-12-11T11:24:26;8.40;;;3.00;;
37943;SDS011;23767;42.024;23.086;2022-12-11T11:26:53;7.35;;;2.60;;
37943;SDS011;23767;42.024;23.086;2022-12-11T11:29:37;7.97;;;2.85;;
37943;SDS011;23767;42.024;23.086;2022-12-11T11:32:13;7.35;;;2.80;;
37943;SDS011;23767;42.024;23.086;2022-12-11T11:34:40;10.05;;;3.10;;
37943;SDS011;23767;42.024;23.086;2022-12-11T11:39:51;6.78;;;2.60;;
37943;SDS011;23767;42.024;23.086;2022-12-11T11:42:20;6.47;;;2.30;;
37943;SDS011;23767;42.024;23.086;2022-12-11T11:47:37;9.68;;;5.13;;
37943;SDS011;23767;42.024;23.086;2022-12-11T11:50:07;12.23;;;2.90;;
37943;SDS011;23767;42.024;23.086;2022-12-11T11:52:56;6.00;;;2.60;;
37943;SDS011;23767;42.024;23.086;2022-12-11T11:57:59;8.63;;;2.88;;
37943;SDS011;23767;42.024;23.086;2022-12-11T12:00:26;6.80;;;3.13;;
37943;SDS011;23767;42.024;23.086;2022-12-11T12:02:53;9.20;;;2.95;;
37943;SDS011;23767;42.024;23.086;2022-12-11T12:05:22;12.13;;;4.13;;
37943;SDS011;23767;42.024;23.086;2022-12-11T12:10:37;7.85;;;2.65;;
37943;SDS011;23767;42.024;23.086;2022-12-11T12:18:13;8.50;;;2.60;;
37943;SDS011;23767;42.024;23.086;2022-12-11T12:20:45;6.05;;;2.10;;
37943;SDS011;23767;42.024;23.086;2022-12-11T12:25:49;12.43;;;6.32;;
37943;SDS011;23767;42.024;23.086;2022-12-11T12:41:19;12.60;;;2.88;;
37943;SDS011;23767;42.024;23.086;2022-12-11T12:46:48;8.45;;;3.15;;
37943;SDS011;23767;42.024;23.086;2022-12-11T12:49:24;8.82;;;3.42;;
37943;SDS011;23767;42.024;23.086;2022-12-11T12:51:52;13.05;;;3.65;;
37943;SDS011;23767;42.024;23.086;2022-12-11T12:54:19;9.90;;;3.50;;
37943;SDS011;23767;42.024;23.086;2022-12-11T12:56:46;8.43;;;2.97;;
37943;SDS011;23767;42.024;23.086;2022-12-11T12:59:23;9.50;;;3.80;;
37943;SDS011;23767;42.024;23.086;2022-12-11T13:01:50;9.05;;;4.25;;
37943;SDS011;23767;42.024;23.086;2022-12-11T13:04:33;8.63;;;2.90;;
37943;SDS011;23767;42.024;23.086;2022-12-11T13:07:09;7.10;;;3.17;;
37943;SDS011;23767;42.024;23.086;2022-12-11T13:09:35;9.55;;;2.92;;
37943;SDS011;23767;42.024;23.086;2022-12-11T13:12:01;7.53;;;3.03;;
37943;SDS011;23767;42.024;23.086;2022-12-11T13:14:37;9.93;;;3.25;;
37943;SDS011;23767;42.024;23.086;2022-12-11T13:17:04;7.63;;;2.78;;
37943;SDS011;23767;42.024;23.086;2022-12-11T13:19:31;10.05;;;3.03;;
37943;SDS011;23767;42.024;23.086;2022-12-11T13:21:58;10.77;;;4.30;;
37943;SDS011;23767;42.024;23.086;2022-12-11T13:24:27;12.07;;;7.93;;
37943;SDS011;23767;42.024;23.086;2022-12-11T13:26:54;10.77;;;4.28;;
37943;SDS011;23767;42.024;23.086;2022-12-11T13:31:56;11.10;;;4.45;;
37943;SDS011;23767;42.024;23.086;2022-12-11T13:34:23;8.93;;;4.50;;
37943;SDS011;23767;42.024;23.086;2022-12-11T13:36:49;8.43;;;3.20;;
37943;SDS011;23767;42.024;23.086;2022-12-11T13:39:25;9.30;;;3.92;;
37943;SDS011;23767;42.024;23.086;2022-12-11T13:42:02;13.00;;;4.40;;
37943;SDS011;23767;42.024;23.086;2022-12-11T13:44:30;10.77;;;5.35;;
37943;SDS011;23767;42.024;23.086;2022-12-11T13:46:59;12.65;;;5.20;;
37943;SDS011;23767;42.024;23.086;2022-12-11T13:49:26;15.52;;;6.95;;
37943;SDS011;23767;42.024;23.086;2022-12-11T13:51:57;18.63;;;8.55;;
37943;SDS011;23767;42.024;23.086;2022-12-11T13:54:23;13.98;;;7.93;;
37943;SDS011;23767;42.024;23.086;2022-12-11T13:56:57;14.10;;;7.38;;
37943;SDS011;23767;42.024;23.086;2022-12-11T13:59:34;17.55;;;8.98;;
37943;SDS011;23767;42.024;23.086;2022-12-11T14:02:04;17.23;;;11.10;;
37943;SDS011;23767;42.024;23.086;2022-12-11T14:04:36;15.25;;;9.52;;
37943;SDS011;23767;42.024;23.086;2022-12-11T14:07:04;16.45;;;8.57;;
37943;SDS011;23767;42.024;23.086;2022-12-11T14:09:31;16.48;;;10.15;;
37943;SDS011;23767;42.024;23.086;2022-12-11T14:11:57;24.17;;;14.90;;
37943;SDS011;23767;42.024;23.086;2022-12-11T14:14:37;35.17;;;24.02;;
37943;SDS011;23767;42.024;23.086;2022-12-11T14:17:04;37.03;;;26.83;;
37943;SDS011;23767;42.024;23.086;2022-12-11T14:19:31;32.78;;;25.00;;
37943;SDS011;23767;42.024;23.086;2022-12-11T14:22:02;30.02;;;20.30;;
37943;SDS011;23767;42.024;23.086;2022-12-11T14:24:29;27.20;;;18.85;;
37943;SDS011;23767;42.024;23.086;2022-12-11T14:26:55;25.45;;;17.52;;
37943;SDS011;23767;42.024;23.086;2022-12-11T14:29:26;17.98;;;12.50;;
37943;SDS011;23767;42.024;23.086;2022-12-11T14:31:52;12.68;;;8.95;;
37943;SDS011;23767;42.024;23.086;2022-12-11T14:34:29;11.80;;;8.32;;
37943;SDS011;23767;42.024;23.086;2022-12-11T14:36:57;15.00;;;10.07;;
37943;SDS011;23767;42.024;23.086;2022-12-11T14:39:30;14.73;;;9.93;;
37943;SDS011;23767;42.024;23.086;2022-12-11T14:42:09;16.45;;;11.55;;
37943;SDS011;23767;42.024;23.086;2022-12-11T14:44:47;18.83;;;12.23;;
37943;SDS011;23767;42.024;23.086;2022-12-11T14:47:19;19.13;;;12.60;;
37943;SDS011;23767;42.024;23.086;2022-12-11T14:52:18;15.60;;;10.32;;
37943;SDS011;23767;42.024;23.086;2022-12-11T14:54:46;13.35;;;8.73;;
37943;SDS011;23767;42.024;23.086;2022-12-11T14:57:19;10.02;;;5.22;;
37943;SDS011;23767;42.024;23.086;2022-12-11T14:59:45;10.07;;;6.00;;
37943;SDS011;23767;42.024;23.086;2022-12-11T15:04:44;11.35;;;6.55;;
37943;SDS011;23767;42.024;23.086;2022-12-11T15:07:20;13.35;;;6.93;;
37943;SDS011;23767;42.024;23.086;2022-12-11T15:09:46;11.73;;;7.20;;
37943;SDS011;23767;42.024;23.086;2022-12-11T15:12:13;12.52;;;7.97;;
37943;SDS011;23767;42.024;23.086;2022-12-11T15:14:50;13.55;;;8.93;;
37943;SDS011;23767;42.024;23.086;2022-12-11T15:17:17;11.77;;;8.20;;
37943;SDS011;23767;42.024;23.086;2022-12-11T15:19:48;11.45;;;7.18;;
37943;SDS011;23767;42.024;23.086;2022-12-11T15:22:15;10.43;;;5.90;;
37943;SDS011;23767;42.024;23.086;2022-12-11T15:24:42;9.50;;;5.90;;
37943;SDS011;23767;42.024;23.086;2022-12-11T15:27:53;11.02;;;6.05;;
37943;SDS011;23767;42.024;23.086;2022-12-11T15:30:00;8.98;;;6.00;;
37943;SDS011;23767;42.024;23.086;2022-12-11T15:32:29;9.40;;;5.68;;
37943;SDS011;23767;42.024;23.086;2022-12-11T15:34:57;9.05;;;5.70;;
37943;SDS011;23767;42.024;23.086;2022-12-11T15:37:25;10.23;;;6.28;;
37943;SDS011;23767;42.024;23.086;2022-12-11T15:39:51;10.50;;;6.53;;
37943;SDS011;23767;42.024;23.086;2022-12-11T15:42:31;11.38;;;7.97;;
37943;SDS011;23767;42.024;23.086;2022-12-11T15:44:58;9.38;;;7.40;;
37943;SDS011;23767;42.024;23.086;2022-12-11T15:47:25;11.55;;;7.43;;
37943;SDS011;23767;42.024;23.086;2022-12-11T15:49:52;13.00;;;8.07;;
37943;SDS011;23767;42.024;23.086;2022-12-11T15:52:19;10.75;;;7.22;;
37943;SDS011;23767;42.024;23.086;2022-12-11T15:54:45;9.73;;;6.70;;